Time;durP1;ratioP1;P1;durP2;ratioP2;P2;SDS_P1;SDS_P2;PMS_P1;PMS_P2;Temp;Humidity;BMP_temperature;BMP_pressure;BME280_temperature;BME280_humidity;BME280_pressure;Samples;Min_cycle;Max_cycle;Signal;HPM_P1;HPM_P2
2022/01/21 00:01:49;;;;;;;0.60;0.40;;;0.30;99.90;;;;;;5014381;28;20195;-81
2022/01/21 00:04:18;;;;;;;0.30;0.30;;;0.20;99.90;;;;;;5014171;28;20300;-82
2022/01/21 00:06:46;;;;;;;0.47;0.47;;;0.20;99.90;;;;;;5013726;28;20213;-81
2022/01/21 00:09:15;;;;;;;0.30;0.30;;;0.30;99.90;;;;;;5013838;28;20215;-82
2022/01/21 00:11:43;;;;;;;1.13;0.50;;;0.20;99.90;;;;;;5013308;28;20213;-82
2022/01/21 00:14:11;;;;;;;1.30;0.53;;;0.20;99.90;;;;;;5013949;28;20274;-81
2022/01/21 00:16:41;;;;;;;0.30;0.30;;;0.20;99.90;;;;;;5013664;28;20260;-82
2022/01/21 00:19:12;;;;;;;0.40;0.40;;;0.20;99.90;;;;;;5012762;28;20214;-82
2022/01/21 00:30:16;;;;;;;0.50;0.23;;;0.20;99.90;;;;;;5008870;28;20290;-82
2022/01/21 00:32:48;;;;;;;4.00;1.07;;;0.30;99.90;;;;;;5013977;28;20224;-82
2022/01/21 00:35:18;;;;;;;0.73;0.40;;;0.40;99.90;;;;;;5013325;28;20247;-82
2022/01/21 00:37:47;;;;;;;8.57;0.70;;;0.40;99.90;;;;;;5013485;28;20207;-82
2022/01/21 00:40:20;;;;;;;1.70;0.90;;;0.40;99.90;;;;;;5013395;28;20483;-82
2022/01/21 00:42:55;;;;;;;0.37;0.37;;;0.20;99.90;;;;;;5013770;28;20289;-82
2022/01/21 00:45:25;;;;;;;1.33;0.80;;;-0.20;99.90;;;;;;5013646;28;20227;-82
2022/01/21 00:47:54;;;;;;;0.30;0.30;;;-0.30;99.90;;;;;;5013710;28;20265;-81
2022/01/21 00:50:23;;;;;;;0.67;0.50;;;-0.40;99.90;;;;;;5013066;28;20199;-82
2022/01/21 00:52:51;;;;;;;0.50;0.50;;;-0.60;99.90;;;;;;5013491;28;20203;-82
2022/01/21 00:55:19;;;;;;;0.63;0.63;;;-0.60;99.90;;;;;;5013563;28;20367;-82
2022/01/21 00:57:48;;;;;;;0.57;0.30;;;-0.70;99.90;;;;;;5013312;28;20285;-82
2022/01/21 01:00:17;;;;;;;0.87;0.60;;;-0.70;99.90;;;;;;5012745;28;20208;-82
2022/01/21 01:02:45;;;;;;;0.77;0.73;;;-0.90;99.90;;;;;;5013545;28;20278;-82
2022/01/21 01:05:15;;;;;;;0.70;0.70;;;-1.00;99.90;;;;;;5013194;28;20226;-81
2022/01/21 01:07:43;;;;;;;0.87;0.80;;;-1.00;99.90;;;;;;5013324;28;20207;-82
2022/01/21 01:10:18;;;;;;;0.50;0.50;;;-1.00;99.90;;;;;;5013388;28;20297;-81
2022/01/21 01:19:51;;;;;;;0.77;0.77;;;-0.90;99.90;;;;;;5013088;28;20289;-82
2022/01/21 01:21:19;;;;;;;1.87;1.10;;;-1.20;99.90;;;;;;5013557;28;20282;-82
2022/01/21 01:24:03;;;;;;;0.80;0.80;;;-1.30;99.90;;;;;;5013974;28;20219;-82
2022/01/21 01:29:18;;;;;;;2.03;0.93;;;-1.30;99.90;;;;;;5013141;28;20257;-81
2022/01/21 01:31:47;;;;;;;1.67;1.00;;;-1.20;99.90;;;;;;5017228;28;20286;-82
2022/01/21 01:34:15;;;;;;;1.80;0.93;;;-1.20;99.90;;;;;;5016812;28;20203;-82
2022/01/21 01:36:47;;;;;;;37.27;1.07;;;-1.20;99.90;;;;;;5013975;28;20211;-82
2022/01/21 01:39:28;;;;;;;0.63;0.63;;;-1.20;99.90;;;;;;5016511;28;20282;-81
2022/01/21 01:42:12;;;;;;;4.10;0.87;;;-1.10;99.90;;;;;;4997513;28;20254;-82
2022/01/21 01:50:38;;;;;;;3.60;1.10;;;-1.00;99.90;;;;;;5016475;28;20291;-81
2022/01/21 01:53:09;;;;;;;0.53;0.53;;;-1.00;99.90;;;;;;5016539;28;20207;-82
2022/01/21 01:55:38;;;;;;;8.70;1.10;;;-1.00;99.90;;;;;;5016387;28;20278;-82
2022/01/21 01:58:06;;;;;;;1.80;0.83;;;-1.00;99.90;;;;;;5016285;28;20259;-82
2022/01/21 02:00:35;;;;;;;3.13;1.00;;;-0.90;99.90;;;;;;5016258;28;20286;-82
2022/01/21 02:03:07;;;;;;;0.60;0.60;;;-0.90;99.90;;;;;;5016501;28;20195;-82
2022/01/21 02:05:35;;;;;;;2.80;0.63;;;-0.90;99.90;;;;;;5016177;28;20227;-82
2022/01/21 02:08:04;;;;;;;1.47;0.70;;;-0.90;99.90;;;;;;5016516;28;20196;-82
2022/01/21 02:10:36;;;;;;;0.53;0.53;;;-0.90;99.90;;;;;;5015807;28;20203;-82
2022/01/21 02:13:16;;;;;;;1.07;0.63;;;-0.90;99.90;;;;;;5016060;28;20283;-82
2022/01/21 02:15:46;;;;;;;0.57;0.43;;;-0.80;99.90;;;;;;5016598;28;20298;-82
2022/01/21 02:21:31;;;;;;;1.07;0.90;;;-0.80;99.90;;;;;;4991981;28;20263;-82
2022/01/21 02:24:01;;;;;;;0.70;0.53;;;-0.80;99.90;;;;;;5015149;28;20259;-82
2022/01/21 02:26:30;;;;;;;1.00;0.90;;;-0.80;99.90;;;;;;5015277;28;20223;-82
2022/01/21 02:29:00;;;;;;;2.00;0.87;;;-0.90;99.90;;;;;;5014973;28;20203;-82
2022/01/21 02:31:29;;;;;;;0.80;0.80;;;-0.80;99.90;;;;;;5016286;28;20251;-82
2022/01/21 02:33:58;;;;;;;1.13;0.70;;;-0.90;99.90;;;;;;5015610;28;20210;-83
2022/01/21 02:36:28;;;;;;;3.23;1.00;;;-0.90;99.90;;;;;;5015719;28;20251;-82
2022/01/21 02:38:57;;;;;;;0.97;0.77;;;-0.80;99.90;;;;;;5015620;28;20207;-83
2022/01/21 02:41:26;;;;;;;0.57;0.57;;;-0.80;99.90;;;;;;5013963;28;20291;-82
2022/01/21 02:43:54;;;;;;;0.50;0.50;;;-0.80;99.90;;;;;;5016043;28;20206;-82
2022/01/21 02:46:23;;;;;;;1.73;0.80;;;-0.80;99.90;;;;;;5015634;28;20219;-82
2022/01/21 02:48:51;;;;;;;1.17;0.80;;;-0.90;99.90;;;;;;5015391;28;20211;-82
2022/01/21 02:51:20;;;;;;;1.87;0.90;;;-0.90;99.90;;;;;;5013779;28;20271;-82
2022/01/21 02:54:05;;;;;;;2.87;1.20;;;-0.80;99.90;;;;;;5015610;28;20207;-82
2022/01/21 02:56:35;;;;;;;1.07;0.90;;;-0.90;99.90;;;;;;5015025;28;20278;-82
2022/01/21 02:59:04;;;;;;;0.80;0.80;;;-0.90;99.90;;;;;;5015344;28;20266;-82
2022/01/21 03:01:34;;;;;;;0.67;0.50;;;-0.90;99.90;;;;;;5015353;28;20289;-83
2022/01/21 03:04:04;;;;;;;1.30;0.90;;;-0.90;99.90;;;;;;5015503;28;20218;-83
2022/01/21 03:06:35;;;;;;;3.63;0.90;;;-0.90;99.90;;;;;;5014053;28;20283;-82
2022/01/21 03:09:07;;;;;;;2.77;0.90;;;-1.00;99.90;;;;;;5014945;28;20229;-82
2022/01/21 03:11:36;;;;;;;4.93;1.60;;;-1.00;99.90;;;;;;4995443;28;20268;-82
2022/01/21 03:14:04;;;;;;;0.93;0.83;;;-1.00;99.90;;;;;;5001330;28;20283;-82
2022/01/21 03:16:32;;;;;;;1.10;0.73;;;-1.00;99.90;;;;;;5015114;28;20207;-82
2022/01/21 03:19:01;;;;;;;1.63;1.03;;;-1.00;99.90;;;;;;5014245;28;20210;-83
2022/01/21 03:21:29;;;;;;;1.67;1.10;;;-1.00;99.90;;;;;;5015186;28;20211;-82
2022/01/21 03:23:58;;;;;;;1.13;0.73;;;-1.00;99.90;;;;;;5014764;28;20215;-81
2022/01/21 03:26:28;;;;;;;1.90;1.07;;;-1.00;99.90;;;;;;5014919;28;20231;-82
2022/01/21 03:28:59;;;;;;;0.63;0.50;;;-1.00;99.90;;;;;;5014539;28;20224;-82
2022/01/21 03:31:29;;;;;;;0.70;0.67;;;-1.00;99.90;;;;;;5015007;28;20294;-82
2022/01/21 03:33:59;;;;;;;1.27;0.80;;;-1.00;99.90;;;;;;5014638;28;20218;-82
2022/01/21 03:36:28;;;;;;;0.50;0.50;;;-0.90;99.90;;;;;;5014748;28;20275;-82
2022/01/21 03:38:56;;;;;;;2.13;0.93;;;-1.00;99.90;;;;;;5014536;28;20282;-82
2022/01/21 03:41:25;;;;;;;1.73;1.13;;;-1.00;99.90;;;;;;5014870;28;20214;-82
2022/01/21 03:43:55;;;;;;;1.43;1.00;;;-1.00;99.90;;;;;;5014904;28;20282;-82
2022/01/21 03:46:23;;;;;;;0.63;0.60;;;-1.10;99.90;;;;;;5014123;28;20223;-82
2022/01/21 03:48:52;;;;;;;1.43;0.90;;;-1.10;99.90;;;;;;5014320;28;20298;-82
2022/01/21 03:51:21;;;;;;;0.63;0.63;;;-1.10;99.90;;;;;;5014532;28;20227;-82
2022/01/21 03:53:50;;;;;;;0.60;0.60;;;-1.10;99.90;;;;;;5014454;28;20275;-82
2022/01/21 03:56:18;;;;;;;0.80;0.80;;;-1.10;99.90;;;;;;5013854;28;20305;-83
2022/01/21 03:58:51;;;;;;;1.63;1.03;;;-1.10;99.90;;;;;;5013954;28;20199;-83
2022/01/21 04:01:23;;;;;;;0.40;0.40;;;-1.10;99.90;;;;;;5014299;28;20286;-82
2022/01/21 04:03:51;;;;;;;1.13;0.70;;;-1.10;99.90;;;;;;5013895;28;20222;-82
2022/01/21 04:06:20;;;;;;;1.13;0.83;;;-1.10;99.90;;;;;;5014216;28;20301;-82
2022/01/21 04:08:48;;;;;;;0.63;0.63;;;-1.00;99.90;;;;;;5013448;28;20199;-82
2022/01/21 04:11:17;;;;;;;0.60;0.60;;;-1.10;99.90;;;;;;5014267;28;20211;-82
2022/01/21 04:13:46;;;;;;;2.20;0.90;;;-1.10;99.90;;;;;;5013757;28;20295;-82
2022/01/21 04:16:14;;;;;;;1.00;0.97;;;-1.20;99.90;;;;;;5014070;28;20294;-82
2022/01/21 04:18:44;;;;;;;0.80;0.77;;;-1.20;99.90;;;;;;5013504;28;20199;-82
2022/01/21 04:21:12;;;;;;;1.10;1.00;;;-1.20;99.90;;;;;;5013956;28;20270;-82
2022/01/21 04:23:41;;;;;;;1.60;1.00;;;-1.20;99.90;;;;;;5014063;28;20218;-82
2022/01/21 04:26:09;;;;;;;2.57;1.17;;;-1.20;99.90;;;;;;5013575;28;20241;-82
2022/01/21 04:28:38;;;;;;;1.03;1.00;;;-1.20;99.90;;;;;;5013959;28;20295;-82
2022/01/21 04:31:06;;;;;;;3.27;1.13;;;-1.20;99.90;;;;;;5013439;28;20245;-82
2022/01/21 04:33:35;;;;;;;0.80;0.80;;;-1.20;99.90;;;;;;5013866;28;20211;-82
2022/01/21 04:36:05;;;;;;;1.27;1.17;;;-1.20;99.90;;;;;;5013667;28;20338;-82
2022/01/21 04:38:34;;;;;;;1.27;0.70;;;-1.20;99.90;;;;;;5014017;28;20221;-82
2022/01/21 04:41:17;;;;;;;2.80;1.40;;;-1.20;99.90;;;;;;5013242;28;20217;-82
2022/01/21 04:49:17;;;;;;;1.67;1.07;;;-1.20;99.90;;;;;;5013094;28;20254;-82
2022/01/21 04:52:02;;;;;;;0.97;0.90;;;-1.30;99.90;;;;;;5013669;28;20205;-83
2022/01/21 04:54:31;;;;;;;1.13;1.07;;;-1.30;99.90;;;;;;5013284;28;20226;-83
2022/01/21 04:57:00;;;;;;;6.77;1.10;;;-1.30;99.90;;;;;;5013182;28;20206;-82
2022/01/21 04:59:29;;;;;;;0.80;0.80;;;-1.30;99.90;;;;;;5012971;28;20199;-82
2022/01/21 05:01:58;;;;;;;3.37;1.37;;;-1.30;99.90;;;;;;5013763;28;20211;-82
2022/01/21 05:04:26;;;;;;;1.67;0.87;;;-1.30;99.90;;;;;;5013860;28;20227;-82
2022/01/21 05:06:56;;;;;;;3.50;1.03;;;-1.30;99.90;;;;;;5017936;28;20219;-82
2022/01/21 05:09:30;;;;;;;1.10;1.00;;;-1.30;99.90;;;;;;5016638;28;20206;-82
2022/01/21 05:12:00;;;;;;;1.47;1.20;;;-1.30;99.90;;;;;;5017635;28;20279;-83
2022/01/21 05:14:43;;;;;;;1.43;0.90;;;-1.30;99.90;;;;;;5017100;28;20247;-83
2022/01/21 05:17:13;;;;;;;1.20;1.00;;;-1.30;99.90;;;;;;5017442;28;20199;-83
2022/01/21 05:19:42;;;;;;;1.57;0.80;;;-1.20;99.90;;;;;;5017015;28;20205;-83
2022/01/21 05:22:12;;;;;;;1.83;1.30;;;-1.30;99.90;;;;;;5016999;28;20194;-83
2022/01/21 05:24:40;;;;;;;1.20;1.13;;;-1.30;99.90;;;;;;5017117;28;20227;-82
2022/01/21 05:27:11;;;;;;;1.30;1.20;;;-1.30;99.90;;;;;;5016723;28;20269;-82
2022/01/21 05:29:39;;;;;;;1.63;1.30;;;-1.30;99.90;;;;;;5016908;28;20290;-82
2022/01/21 05:32:09;;;;;;;1.53;0.80;;;-1.30;99.90;;;;;;5017066;28;20278;-83
2022/01/21 05:34:37;;;;;;;1.87;1.20;;;-1.30;99.90;;;;;;5016933;28;20283;-83
2022/01/21 05:37:08;;;;;;;1.43;0.93;;;-1.40;99.90;;;;;;5017054;28;20282;-83
2022/01/21 05:39:38;;;;;;;8.83;1.30;;;-1.40;99.90;;;;;;5016647;28;20299;-82
2022/01/21 05:42:07;;;;;;;2.50;0.93;;;-1.30;99.90;;;;;;5014130;28;20214;-82
2022/01/21 05:47:21;;;;;;;0.83;0.70;;;-1.40;99.90;;;;;;5011165;28;20308;-82
2022/01/21 05:49:54;;;;;;;0.60;0.60;;;-1.40;99.90;;;;;;4996762;28;20211;-82
2022/01/21 05:52:30;;;;;;;2.20;1.07;;;-1.40;99.90;;;;;;4996965;28;20222;-82
2022/01/21 05:55:00;;;;;;;0.80;0.70;;;-1.40;99.90;;;;;;4997181;28;20238;-82
2022/01/21 05:57:30;;;;;;;0.80;0.80;;;-1.40;99.90;;;;;;4996717;28;20259;-82
2022/01/21 05:59:59;;;;;;;1.70;1.57;;;-1.40;99.90;;;;;;5005412;28;20255;-81
2022/01/21 06:02:27;;;;;;;0.97;0.90;;;-1.40;99.90;;;;;;5016648;28;20250;-81
2022/01/21 06:04:56;;;;;;;1.20;1.10;;;-1.40;99.90;;;;;;5016462;28;20255;-83
2022/01/21 06:07:24;;;;;;;1.37;1.27;;;-1.40;99.90;;;;;;5016116;28;20230;-81
2022/01/21 06:09:53;;;;;;;1.03;1.00;;;-1.40;99.90;;;;;;5015579;28;20207;-81
2022/01/21 06:12:23;;;;;;;1.93;0.90;;;-1.50;99.90;;;;;;5016282;28;20215;-81
2022/01/21 06:14:52;;;;;;;10.23;1.40;;;-1.40;99.90;;;;;;5013336;28;20219;-82
2022/01/21 06:17:20;;;;;;;2.17;1.43;;;-1.50;99.90;;;;;;5016259;28;20207;-81
2022/01/21 06:19:50;;;;;;;1.80;0.90;;;-1.50;99.90;;;;;;5011738;28;20195;-81
2022/01/21 06:22:18;;;;;;;2.23;1.30;;;-1.50;99.90;;;;;;5005007;28;20200;-81
2022/01/21 06:24:47;;;;;;;3.37;1.20;;;-1.50;99.90;;;;;;4996153;28;20286;-81
2022/01/21 06:27:16;;;;;;;2.23;1.40;;;-1.50;99.90;;;;;;5007131;28;20258;-81
2022/01/21 06:29:46;;;;;;;1.67;1.10;;;-1.50;99.90;;;;;;5015272;28;20207;-82
2022/01/21 06:32:14;;;;;;;1.43;1.10;;;-1.50;99.90;;;;;;4996084;28;20288;-82
2022/01/21 06:34:42;;;;;;;2.30;1.17;;;-1.50;99.90;;;;;;5013549;28;20305;-82
2022/01/21 06:37:12;;;;;;;1.43;0.90;;;-1.50;99.90;;;;;;5015781;28;20208;-81
2022/01/21 06:39:40;;;;;;;2.00;1.00;;;-1.50;99.90;;;;;;5015157;28;20203;-75
2022/01/21 06:42:09;;;;;;;1.03;0.87;;;-1.40;99.90;;;;;;5015962;28;20282;-75
2022/01/21 06:44:38;;;;;;;0.60;0.50;;;-1.50;99.90;;;;;;4996197;28;20223;-76
2022/01/21 06:47:08;;;;;;;1.23;1.03;;;-1.40;99.90;;;;;;5001928;28;20297;-75
2022/01/21 06:49:36;;;;;;;0.63;0.60;;;-1.50;99.90;;;;;;5015352;28;20203;-75
2022/01/21 06:52:05;;;;;;;1.63;1.37;;;-1.50;99.90;;;;;;5015269;28;20210;-75
2022/01/21 06:54:34;;;;;;;0.93;0.90;;;-1.50;99.90;;;;;;5015738;28;20279;-75
2022/01/21 06:57:02;;;;;;;26.00;1.20;;;-1.50;99.90;;;;;;5015460;28;20206;-75
2022/01/21 06:59:30;;;;;;;1.70;0.77;;;-1.50;99.90;;;;;;5015279;28;20211;-75
2022/01/21 07:01:59;;;;;;;1.07;0.93;;;-1.50;99.90;;;;;;5015498;28;20284;-75
2022/01/21 07:04:29;;;;;;;0.80;0.80;;;-1.50;99.90;;;;;;5015389;28;20292;-75
2022/01/21 07:06:58;;;;;;;1.73;0.87;;;-1.50;99.90;;;;;;5015180;28;20205;-75
2022/01/21 07:09:26;;;;;;;2.17;1.10;;;-1.40;99.90;;;;;;5015056;28;20260;-75
2022/01/21 07:11:55;;;;;;;4.47;1.10;;;-1.40;99.90;;;;;;5014933;28;20290;-75
2022/01/21 07:14:23;;;;;;;2.43;0.87;;;-1.40;99.90;;;;;;5015236;28;20231;-75
2022/01/21 07:16:52;;;;;;;2.53;1.07;;;-1.40;99.90;;;;;;5015234;28;20199;-75
2022/01/21 07:19:20;;;;;;;1.27;0.90;;;-1.40;99.90;;;;;;5015094;28;20211;-75
2022/01/21 07:21:50;;;;;;;1.80;1.00;;;-1.40;99.90;;;;;;5015120;28;20231;-75
2022/01/21 07:24:18;;;;;;;1.93;1.30;;;-1.40;99.90;;;;;;5014907;28;20267;-75
2022/01/21 07:26:47;;;;;;;1.67;0.83;;;-1.40;99.90;;;;;;5014699;28;20298;-75
2022/01/21 07:29:16;;;;;;;1.33;0.90;;;-1.30;99.90;;;;;;5008273;28;20224;-75
2022/01/21 07:31:44;;;;;;;1.93;0.97;;;-1.30;99.90;;;;;;5003410;28;20355;-75
2022/01/21 07:34:13;;;;;;;0.87;0.80;;;-1.30;99.90;;;;;;5006797;28;20263;-74
2022/01/21 07:36:42;;;;;;;1.20;0.90;;;-1.30;99.90;;;;;;5003477;28;20203;-75
2022/01/21 07:39:12;;;;;;;1.63;0.73;;;-1.30;99.90;;;;;;5009179;28;20282;-75
2022/01/21 07:41:40;;;;;;;4.10;0.80;;;-1.20;99.90;;;;;;5003442;28;20203;-76
2022/01/21 07:44:09;;;;;;;3.33;1.30;;;-1.20;99.90;;;;;;5010613;28;20282;-76
2022/01/21 07:46:40;;;;;;;0.83;0.83;;;-1.20;99.90;;;;;;5003398;28;20215;-79
2022/01/21 07:49:09;;;;;;;3.43;1.23;;;-1.20;99.90;;;;;;4994543;28;20282;-76
2022/01/21 07:51:37;;;;;;;3.93;1.27;;;-1.10;99.90;;;;;;4995034;28;20275;-75
2022/01/21 07:54:06;;;;;;;1.80;1.00;;;-1.10;99.90;;;;;;5014526;28;20235;-76
2022/01/21 07:56:37;;;;;;;1.50;1.07;;;-1.10;99.90;;;;;;5014123;28;20200;-76
2022/01/21 07:59:08;;;;;;;0.77;0.77;;;-1.10;99.90;;;;;;5004244;28;20200;-76
2022/01/21 08:01:36;;;;;;;1.47;0.60;;;-1.10;99.90;;;;;;5014044;28;20206;-76
2022/01/21 08:04:06;;;;;;;1.00;0.90;;;-1.00;99.90;;;;;;5014557;28;20211;-75
2022/01/21 08:06:34;;;;;;;1.63;0.80;;;-1.00;99.90;;;;;;5013135;28;20207;-75
2022/01/21 08:09:03;;;;;;;0.77;0.67;;;-1.00;99.90;;;;;;5013407;28;20310;-75
2022/01/21 08:11:32;;;;;;;2.53;1.23;;;-0.90;99.90;;;;;;5013924;28;20211;-75
2022/01/21 08:14:02;;;;;;;2.80;1.10;;;-0.90;99.90;;;;;;5013799;28;20213;-76
2022/01/21 08:16:32;;;;;;;9.67;1.40;;;-0.80;99.90;;;;;;5013966;28;20278;-76
2022/01/21 08:19:03;;;;;;;0.60;0.53;;;-0.70;99.90;;;;;;5013467;28;20237;-75
2022/01/21 08:21:31;;;;;;;2.00;0.80;;;-0.60;99.90;;;;;;5014587;28;20299;-76
2022/01/21 08:23:59;;;;;;;0.97;0.67;;;-0.60;99.90;;;;;;5013752;28;20239;-76
2022/01/21 08:26:29;;;;;;;0.80;0.80;;;-0.50;99.90;;;;;;5013337;28;20286;-76
2022/01/21 08:28:57;;;;;;;0.97;0.60;;;-0.50;99.90;;;;;;5013062;28;20227;-75
2022/01/21 08:31:27;;;;;;;2.57;1.17;;;-0.50;99.90;;;;;;5013805;28;20297;-75
2022/01/21 08:33:55;;;;;;;1.63;0.90;;;-0.50;99.90;;;;;;5013610;28;20419;-75
2022/01/21 08:36:25;;;;;;;1.07;0.43;;;-0.40;99.90;;;;;;5013552;28;20223;-76
2022/01/21 08:38:55;;;;;;;1.00;0.90;;;-0.40;99.90;;;;;;5012858;28;20282;-75
2022/01/21 08:41:23;;;;;;;1.20;0.87;;;-0.40;99.90;;;;;;5011001;28;20211;-75
2022/01/21 08:43:51;;;;;;;3.10;1.60;;;-0.50;99.90;;;;;;5012415;28;20238;-75
2022/01/21 08:46:23;;;;;;;2.10;1.10;;;-0.40;99.90;;;;;;5013193;28;20226;-76
2022/01/21 08:48:53;;;;;;;2.17;1.17;;;-0.50;99.90;;;;;;5013308;28;20283;-76
2022/01/21 08:51:26;;;;;;;1.03;0.93;;;-0.50;99.90;;;;;;5012197;28;20262;-75
2022/01/21 08:53:54;;;;;;;1.90;1.07;;;-0.70;99.90;;;;;;5004562;28;20211;-75
2022/01/21 08:56:23;;;;;;;0.70;0.67;;;-0.70;99.90;;;;;;5013354;28;20283;-75
2022/01/21 08:58:51;;;;;;;0.70;0.70;;;-0.70;99.90;;;;;;5004258;28;20226;-75
2022/01/21 09:01:19;;;;;;;1.50;0.80;;;-0.70;99.90;;;;;;5010245;28;20227;-75
2022/01/21 09:03:48;;;;;;;0.80;0.80;;;-0.70;99.90;;;;;;5013099;28;20264;-75
2022/01/21 09:06:19;;;;;;;1.43;1.00;;;-0.60;99.90;;;;;;5013372;28;20306;-75
2022/01/21 09:08:47;;;;;;;0.90;0.70;;;-0.60;99.90;;;;;;5012251;28;20229;-76
2022/01/21 09:11:16;;;;;;;2.10;1.47;;;-0.60;99.90;;;;;;5013201;28;20278;-75
2022/01/21 09:13:44;;;;;;;2.33;1.03;;;-0.60;99.90;;;;;;5013018;28;20259;-75
2022/01/21 09:16:12;;;;;;;2.00;0.87;;;-0.50;99.90;;;;;;5013301;28;20218;-75
2022/01/21 09:18:47;;;;;;;1.23;1.13;;;-0.50;99.90;;;;;;5013447;28;20207;-76
2022/01/21 09:21:36;;;;;;;1.73;1.23;;;-0.50;99.90;;;;;;4993558;28;20287;-75
2022/01/21 09:24:06;;;;;;;0.70;0.70;;;-0.50;99.90;;;;;;5005032;28;20235;-76
2022/01/21 09:26:35;;;;;;;1.20;0.90;;;-0.40;99.90;;;;;;5012886;28;20207;-76
2022/01/21 09:29:05;;;;;;;1.80;1.33;;;-0.40;99.90;;;;;;5012766;28;20302;-75
2022/01/21 09:31:34;;;;;;;1.37;0.70;;;-0.30;99.90;;;;;;5006908;28;20264;-76
2022/01/21 09:34:23;;;;;;;0.73;0.70;;;-0.30;99.90;;;;;;5012657;28;20226;-75
2022/01/21 09:36:53;;;;;;;3.50;1.13;;;-0.20;99.90;;;;;;5012954;28;20286;-75
2022/01/21 09:39:22;;;;;;;0.90;0.67;;;-0.20;99.90;;;;;;4993470;28;20272;-76
2022/01/21 09:41:51;;;;;;;1.23;0.83;;;-0.20;99.90;;;;;;5008456;28;20210;-76
2022/01/21 09:44:21;;;;;;;1.10;0.60;;;-0.10;99.90;;;;;;5006658;28;20203;-76
2022/01/21 09:46:53;;;;;;;0.67;0.63;;;-0.10;99.90;;;;;;4996531;28;20303;-75
2022/01/21 09:49:27;;;;;;;1.90;1.03;;;-0.10;99.90;;;;;;5001012;28;20219;-76
2022/01/21 09:52:00;;;;;;;2.37;1.10;;;0.00;99.90;;;;;;5000228;28;20246;-76
2022/01/21 09:54:31;;;;;;;0.50;0.50;;;0.00;99.90;;;;;;5016640;28;20258;-75
2022/01/21 09:57:01;;;;;;;0.50;0.50;;;0.00;99.90;;;;;;5012410;28;20207;-76
2022/01/21 09:59:31;;;;;;;1.30;0.90;;;0.00;99.90;;;;;;5016204;28;20227;-76
2022/01/21 10:02:01;;;;;;;1.07;0.97;;;0.00;99.90;;;;;;5016576;28;20209;-76
2022/01/21 10:04:32;;;;;;;1.30;0.97;;;0.10;99.90;;;;;;5016213;28;20223;-76
2022/01/21 10:07:03;;;;;;;1.13;0.60;;;0.10;99.90;;;;;;5016318;28;20203;-76
2022/01/21 10:09:32;;;;;;;1.70;1.00;;;0.20;99.90;;;;;;5015920;28;20302;-76
2022/01/21 10:12:02;;;;;;;0.90;0.90;;;0.30;99.90;;;;;;5016544;28;20285;-76
2022/01/21 10:14:31;;;;;;;0.47;0.47;;;0.40;99.90;;;;;;5015991;28;20227;-76
2022/01/21 10:17:00;;;;;;;0.50;0.50;;;0.50;99.90;;;;;;5016201;28;20293;-76
2022/01/21 10:19:30;;;;;;;0.80;0.80;;;0.60;99.90;;;;;;5015935;28;20282;-76
2022/01/21 10:22:04;;;;;;;0.80;0.63;;;0.70;99.90;;;;;;5016268;28;20209;-76
2022/01/21 10:24:34;;;;;;;0.77;0.77;;;0.90;99.90;;;;;;5015463;28;20310;-76
2022/01/21 10:27:02;;;;;;;0.93;0.70;;;1.00;99.90;;;;;;5015982;28;20213;-76
2022/01/21 10:29:39;;;;;;;1.27;0.90;;;1.10;99.90;;;;;;5015560;28;20310;-76
2022/01/21 10:32:09;;;;;;;1.80;0.90;;;1.20;99.90;;;;;;5016037;28;20294;-76
2022/01/21 10:34:42;;;;;;;1.10;1.03;;;1.20;99.90;;;;;;5015764;28;20223;-76
2022/01/21 10:37:26;;;;;;;0.83;0.60;;;1.40;99.90;;;;;;5015433;28;20259;-76
2022/01/21 10:39:59;;;;;;;4.20;1.47;;;1.80;99.90;;;;;;5015228;28;20255;-76
2022/01/21 10:42:29;;;;;;;1.90;0.82;;;2.00;99.90;;;;;;5015773;28;20282;-76
2022/01/21 10:44:58;;;;;;;0.65;0.52;;;2.30;99.90;;;;;;5015332;28;20226;-76
2022/01/21 10:47:31;;;;;;;0.90;0.88;;;2.50;99.10;;;;;;5015576;28;20221;-76
2022/01/21 10:50:04;;;;;;;0.82;0.82;;;2.50;98.90;;;;;;5015228;28;20226;-76
2022/01/21 10:52:38;;;;;;;2.22;1.00;;;2.60;99.90;;;;;;5015429;28;20228;-77
2022/01/21 10:55:27;;;;;;;1.05;0.95;;;2.90;99.90;;;;;;5015674;28;20226;-77
2022/01/21 10:58:07;;;;;;;1.00;1.00;;;3.30;97.60;;;;;;5015534;28;20217;-77
2022/01/21 11:00:36;;;;;;;1.33;0.95;;;3.30;97.90;;;;;;5009909;28;20206;-77
2022/01/21 11:03:11;;;;;;;1.30;0.98;;;3.30;94.30;;;;;;5014380;28;20210;-82
2022/01/21 11:05:43;;;;;;;3.90;1.42;;;3.20;94.70;;;;;;5014752;28;20222;-82
2022/01/21 11:08:14;;;;;;;1.20;0.75;;;3.10;94.30;;;;;;5015192;28;20258;-82
2022/01/21 11:10:49;;;;;;;0.82;0.82;;;3.10;93.60;;;;;;5014347;28;20219;-82
2022/01/21 11:13:36;;;;;;;1.05;0.98;;;3.40;95.60;;;;;;5014903;28;20211;-82
2022/01/21 11:16:13;;;;;;;2.50;0.85;;;3.80;95.00;;;;;;5013738;28;20233;-82
2022/01/21 11:19:08;;;;;;;1.33;1.23;;;4.20;92.70;;;;;;5013358;28;20196;-83
2022/01/21 11:21:56;;;;;;;1.10;0.90;;;4.60;93.80;;;;;;5015233;28;20199;-82
2022/01/21 11:24:27;;;;;;;0.50;0.50;;;4.10;93.20;;;;;;5014954;28;20314;-82
2022/01/21 11:27:13;;;;;;;1.27;0.90;;;3.50;93.90;;;;;;5014626;28;20261;-82
2022/01/21 11:29:43;;;;;;;1.45;1.10;;;3.30;95.20;;;;;;5014251;28;20287;-82
2022/01/21 11:32:13;;;;;;;1.20;0.98;;;3.20;95.10;;;;;;5014961;28;20218;-82
2022/01/21 11:34:42;;;;;;;0.90;0.90;;;3.10;96.30;;;;;;5014120;28;20259;-83
2022/01/21 11:37:11;;;;;;;1.25;1.15;;;3.50;98.50;;;;;;5014755;28;20290;-83
2022/01/21 11:39:42;;;;;;;1.55;1.05;;;3.60;94.70;;;;;;5006285;28;20230;-84
2022/01/21 11:42:10;;;;;;;1.25;0.90;;;3.60;94.70;;;;;;4995167;28;20287;-84
2022/01/21 11:44:47;;;;;;;1.75;1.65;;;3.80;97.40;;;;;;5011470;28;20219;-83
2022/01/21 11:47:29;;;;;;;1.35;0.95;;;4.00;96.90;;;;;;5014399;28;20329;-85
2022/01/21 11:50:01;;;;;;;2.88;1.25;;;4.10;93.90;;;;;;5012263;28;20337;-84
2022/01/21 11:52:45;;;;;;;2.63;1.70;;;4.20;95.00;;;;;;5014620;28;20259;-82
2022/01/21 11:55:34;;;;;;;2.05;1.23;;;4.00;95.10;;;;;;5014581;28;20314;-86
2022/01/21 11:58:13;;;;;;;1.17;1.08;;;4.30;95.10;;;;;;5014471;28;20295;-82
2022/01/21 12:00:42;;;;;;;1.90;1.30;;;4.30;94.80;;;;;;5014389;28;20211;-82
2022/01/21 12:03:11;;;;;;;1.23;1.05;;;4.40;96.00;;;;;;5014394;28;20233;-80
2022/01/21 12:05:39;;;;;;;0.93;0.80;;;4.10;94.80;;;;;;5014100;28;20238;-82
2022/01/21 12:08:08;;;;;;;2.42;1.30;;;3.90;95.80;;;;;;5014135;28;20285;-81
2022/01/21 12:10:43;;;;;;;2.80;1.05;;;4.30;96.40;;;;;;5010697;28;20279;-83
2022/01/21 12:13:19;;;;;;;1.48;1.20;;;4.70;95.50;;;;;;4995834;28;20217;-84
2022/01/21 12:19:24;;;;;;;0.85;0.85;;;5.10;92.90;;;;;;4994712;28;20287;-85
2022/01/21 12:21:54;;;;;;;2.45;1.30;;;4.60;92.30;;;;;;4994899;28;20204;-82
2022/01/21 12:25:01;;;;;;;0.95;0.75;;;4.30;92.80;;;;;;4994828;28;20247;-82
2022/01/21 12:27:31;;;;;;;1.42;0.93;;;3.90;94.50;;;;;;4993961;28;20242;-84
2022/01/21 12:30:28;;;;;;;2.70;1.40;;;3.60;94.40;;;;;;4994100;28;20203;-81
2022/01/21 12:33:01;;;;;;;1.08;0.70;;;3.50;93.90;;;;;;4994655;28;20254;-82
2022/01/21 12:35:33;;;;;;;1.65;1.35;;;3.40;95.60;;;;;;4994372;28;20254;-85
2022/01/21 12:41:22;;;;;;;1.83;1.13;;;3.80;96.70;;;;;;5013318;28;20263;-81
2022/01/21 12:43:55;;;;;;;5.85;0.90;;;4.20;95.90;;;;;;5006031;28;20295;-81
2022/01/21 12:46:32;;;;;;;12.43;1.90;;;3.50;93.90;;;;;;5013064;28;20237;-82
2022/01/21 12:49:01;;;;;;;1.00;0.80;;;3.20;95.10;;;;;;5013225;28;20402;-82
2022/01/21 12:51:56;;;;;;;2.03;1.40;;;3.50;95.10;;;;;;5013011;28;20219;-82
2022/01/21 12:57:11;;;;;;;1.05;1.00;;;3.90;93.80;;;;;;5014220;28;20290;-81
2022/01/21 12:59:43;;;;;;;8.27;1.70;;;3.90;94.80;;;;;;5013123;28;20286;-82
2022/01/21 13:02:23;;;;;;;3.40;2.13;;;4.20;94.40;;;;;;5013275;28;20199;-82
2022/01/21 13:05:01;;;;;;;1.67;1.30;;;4.20;93.30;;;;;;5012855;28;20317;-82
2022/01/21 13:07:38;;;;;;;2.88;1.52;;;4.00;94.30;;;;;;5010022;28;20192;-81
2022/01/21 13:10:17;;;;;;;1.67;1.17;;;4.00;94.20;;;;;;5007107;28;20202;-82
2022/01/21 13:12:59;;;;;;;1.75;1.10;;;4.40;94.60;;;;;;5013227;28;20226;-81
2022/01/21 13:15:40;;;;;;;1.73;1.60;;;4.70;93.70;;;;;;5012357;28;20219;-79
2022/01/21 13:18:11;;;;;;;14.45;1.20;;;4.40;93.10;;;;;;5013161;28;20199;-81
2022/01/21 13:20:43;;;;;;;2.13;1.13;;;4.50;93.70;;;;;;5013268;28;20274;-81
2022/01/21 13:23:13;;;;;;;1.45;1.35;;;4.50;93.50;;;;;;5013566;28;20207;-82
2022/01/21 13:25:45;;;;;;;12.20;1.42;;;4.60;94.80;;;;;;5014647;28;20239;-81
2022/01/21 13:28:14;;;;;;;1.58;1.40;;;4.60;93.10;;;;;;5015866;28;20222;-81
2022/01/21 13:30:43;;;;;;;1.88;1.55;;;4.10;92.60;;;;;;4998692;28;20223;-81
2022/01/21 13:33:13;;;;;;;3.08;1.15;;;4.00;93.60;;;;;;5006000;28;20278;-81
2022/01/21 13:35:44;;;;;;;2.15;1.20;;;4.00;93.40;;;;;;5013146;28;20225;-81
2022/01/21 13:38:15;;;;;;;3.53;1.75;;;3.50;94.40;;;;;;5017035;28;20302;-81
2022/01/21 13:40:46;;;;;;;1.98;1.30;;;3.90;96.30;;;;;;5016973;28;20291;-81
2022/01/21 13:43:16;;;;;;;0.93;0.70;;;3.90;94.40;;;;;;5016576;28;20211;-80
2022/01/21 13:45:59;;;;;;;2.17;1.23;;;3.80;94.30;;;;;;5016153;28;20337;-81
2022/01/21 13:48:29;;;;;;;1.10;1.00;;;3.50;95.70;;;;;;5016927;28;20203;-81
2022/01/21 13:50:59;;;;;;;2.58;1.38;;;2.90;95.30;;;;;;5016415;28;20250;-83
2022/01/21 13:53:28;;;;;;;3.80;1.00;;;2.90;96.10;;;;;;5016851;28;20207;-84
2022/01/21 13:55:59;;;;;;;1.45;1.27;;;2.90;97.40;;;;;;5016333;28;20286;-83